Horn Island — WDH5949 — position and weather

sailwx.info

Track history (hours):
 
Tides and Currents Weather Stations Pressure Air Temp Water Temp Dewpoint Dewpoint Depression Visibility Wind Speed Wind Dir Waves Ship Positions

Horn Island

Owner: Higman Barge Lines., Inc, Orange, TX. More information available from US FCC via Universal Licensing System and Coast Guard Vessel Documentation Center.

Last reported at 2018-Feb-22 21:26 UTC. Time now 2018-Feb-23 02:42 UTC.
Position N 29°44' W 095°08'.

Length 24 m; draft 9.6 m.

Type: Towing. MMSI: 367633090.

Date/timePositionNaut miles runAvg speedWind from/ knotsBaromVisibWave heightAir tempDewpointWater temp
2018-Feb-22 21:26N 29°44' W 095°08'3 3.4
2018-Feb-22 20:40N 29°46' W 095°05'0 0.0
2018-Feb-22 20:12N 29°46' W 095°05'0 1.0
2018-Feb-22 19:53N 29°46' W 095°05'3 3.2
2018-Feb-22 18:51N 29°44' W 095°09'4 4.5
2018-Feb-22 17:51N 29°43' W 095°14'6 1.7
2018-Feb-22 14:05N 29°45' W 095°06'0 0.0
2018-Feb-21 22:30N 29°44' W 095°07'0 0.2
2018-Feb-21 21:52N 29°45' W 095°06'  
2018-Feb-19 14:19N 29°44' W 095°08'0 0.0
2018-Feb-19 13:58N 29°44' W 095°08'0 0.0
2018-Feb-19 13:28N 29°44' W 095°08'0 0.0
2018-Feb-19 12:58N 29°44' W 095°08'0 0.0
2018-Feb-19 10:46N 29°44' W 095°08'0 0.0
2018-Feb-19 10:28N 29°44' W 095°08'0 0.0
2018-Feb-19 09:52N 29°44' W 095°08'0 0.0
2018-Feb-19 09:10N 29°44' W 095°08'0 0.0
2018-Feb-19 08:49N 29°44' W 095°08'0 0.0
2018-Feb-19 08:22N 29°44' W 095°08'0 0.0
2018-Feb-19 07:55N 29°44' W 095°08'0 0.0
2018-Feb-19 07:28N 29°44' W 095°08'0 0.0
2018-Feb-19 06:55N 29°44' W 095°08'0 0.0
2018-Feb-19 06:28N 29°44' W 095°08'0 0.0
2018-Feb-19 05:58N 29°44' W 095°08'0 0.0
2018-Feb-19 05:28N 29°44' W 095°08'0 0.0
2018-Feb-18 16:40N 29°44' W 095°08'0 0.0
2018-Feb-18 16:19N 29°44' W 095°08'2 3.2
2018-Feb-18 15:49N 29°44' W 095°07'3 7.1
2018-Feb-18 15:28N 29°44' W 095°09'2 3.1
2018-Feb-18 14:54N 29°45' W 095°11'3 0.3
2018-Feb-18 04:22N 29°44' W 095°08'0 0.1
2018-Feb-18 02:04N 29°44' W 095°08'0 0.0
2018-Feb-18 01:52N 29°44' W 095°08'0 0.0
2018-Feb-18 01:26N 29°44' W 095°08'0 0.0
2018-Feb-18 00:58N 29°44' W 095°08'0 0.0
2018-Feb-18 00:28N 29°44' W 095°08'0 0.0
2018-Feb-17 23:58N 29°44' W 095°08'1 0.0
2018-Feb-16 20:56N 29°44' W 095°08'1 0.5
2018-Feb-16 18:34N 29°45' W 095°07'0 0.0
2018-Feb-16 18:28N 29°45' W 095°07'0 0.0
2018-Feb-16 16:25N 29°45' W 095°07'0 0.0
2018-Feb-16 15:55N 29°45' W 095°07'0 0.0
2018-Feb-16 15:25N 29°45' W 095°07'0 0.0
2018-Feb-16 14:55N 29°45' W 095°07'0 0.0
2018-Feb-16 14:25N 29°45' W 095°07'0 0.4
2018-Feb-16 14:00N 29°44' W 095°07'1 0.2
2018-Feb-16 07:19N 29°44' W 095°08'0 0.1
2018-Feb-16 06:55N 29°44' W 095°08'1 2.8
2018-Feb-16 06:24N 29°45' W 095°10'2 0.8
2018-Feb-16 04:08N 29°45' W 095°12'0 0.0
2018-Feb-16 03:53N 29°45' W 095°12'0 0.0
2018-Feb-16 03:26N 29°45' W 095°12'0 0.0
2018-Feb-16 02:56N 29°45' W 095°12'0 0.0
2018-Feb-15 10:18N 29°45' W 095°11'2 4.6
2018-Feb-15 09:49N 29°44' W 095°09'2 5.0
2018-Feb-15 09:30N 29°44' W 095°07'2 2.8
2018-Feb-15 08:49N 29°46' W 095°06'0 0.7
2018-Feb-15 08:28N 29°46' W 095°06'1 1.0
2018-Feb-15 07:51N 29°47' W 095°06'0 0.0
2018-Feb-15 07:27N 29°47' W 095°06'0 0.0
2018-Feb-15 07:00N 29°47' W 095°06'0 0.0
2018-Feb-15 06:24N 29°47' W 095°06'0 0.0
2018-Feb-15 06:00N 29°47' W 095°06'0 0.0
2018-Feb-15 05:24N 29°47' W 095°06'0 0.0
2018-Feb-15 04:30N 29°47' W 095°06'0 0.0
2018-Feb-14 17:09N 29°47' W 095°06'0 0.0
2018-Feb-14 15:03N 29°47' W 095°06'0 0.0
2018-Feb-14 14:42N 29°47' W 095°06'0 0.0
2018-Feb-14 13:57N 29°47' W 095°06'  
Track history (hours):
 
Tides and Currents Weather Stations Pressure Air Temp Water Temp Dewpoint Dewpoint Depression Visibility Wind Speed Wind Dir Waves Ship Positions

Horn Island

Owner: Higman Barge Lines., Inc, Orange, TX. More information available from US FCC via Universal Licensing System and Coast Guard Vessel Documentation Center.

Last reported at 2018-Feb-22 21:26 UTC. Time now 2018-Feb-23 02:42 UTC.
Position N 29°44' W 095°08'.

Length 24 m; draft 9.6 m.

Type: Towing. MMSI: 367633090.

Date/timePositionNaut miles runAvg speedWind from/ knotsBaromVisibWave heightAir tempDewpointWater temp
2018-Feb-22 21:26N 29°44' W 095°08'3 3.4
2018-Feb-22 20:40N 29°46' W 095°05'0 0.0
2018-Feb-22 20:12N 29°46' W 095°05'0 1.0
2018-Feb-22 19:53N 29°46' W 095°05'3 3.2
2018-Feb-22 18:51N 29°44' W 095°09'4 4.5
2018-Feb-22 17:51N 29°43' W 095°14'6 1.7
2018-Feb-22 14:05N 29°45' W 095°06'0 0.0
2018-Feb-21 22:30N 29°44' W 095°07'0 0.2
2018-Feb-21 21:52N 29°45' W 095°06'  
2018-Feb-19 14:19N 29°44' W 095°08'0 0.0
2018-Feb-19 13:58N 29°44' W 095°08'0 0.0
2018-Feb-19 13:28N 29°44' W 095°08'0 0.0
2018-Feb-19 12:58N 29°44' W 095°08'0 0.0
2018-Feb-19 10:46N 29°44' W 095°08'0 0.0
2018-Feb-19 10:28N 29°44' W 095°08'0 0.0
2018-Feb-19 09:52N 29°44' W 095°08'0 0.0
2018-Feb-19 09:10N 29°44' W 095°08'0 0.0
2018-Feb-19 08:49N 29°44' W 095°08'0 0.0
2018-Feb-19 08:22N 29°44' W 095°08'0 0.0
2018-Feb-19 07:55N 29°44' W 095°08'0 0.0
2018-Feb-19 07:28N 29°44' W 095°08'0 0.0
2018-Feb-19 06:55N 29°44' W 095°08'0 0.0
2018-Feb-19 06:28N 29°44' W 095°08'0 0.0
2018-Feb-19 05:58N 29°44' W 095°08'0 0.0
2018-Feb-19 05:28N 29°44' W 095°08'0 0.0
2018-Feb-18 16:40N 29°44' W 095°08'0 0.0
2018-Feb-18 16:19N 29°44' W 095°08'2 3.2
2018-Feb-18 15:49N 29°44' W 095°07'3 7.1
2018-Feb-18 15:28N 29°44' W 095°09'2 3.1
2018-Feb-18 14:54N 29°45' W 095°11'3 0.3
2018-Feb-18 04:22N 29°44' W 095°08'0 0.1
2018-Feb-18 02:04N 29°44' W 095°08'0 0.0
2018-Feb-18 01:52N 29°44' W 095°08'0 0.0
2018-Feb-18 01:26N 29°44' W 095°08'0 0.0
2018-Feb-18 00:58N 29°44' W 095°08'0 0.0
2018-Feb-18 00:28N 29°44' W 095°08'0 0.0
2018-Feb-17 23:58N 29°44' W 095°08'1 0.0
2018-Feb-16 20:56N 29°44' W 095°08'1 0.5
2018-Feb-16 18:34N 29°45' W 095°07'0 0.0
2018-Feb-16 18:28N 29°45' W 095°07'0 0.0
2018-Feb-16 16:25N 29°45' W 095°07'0 0.0
2018-Feb-16 15:55N 29°45' W 095°07'0 0.0
2018-Feb-16 15:25N 29°45' W 095°07'0 0.0
2018-Feb-16 14:55N 29°45' W 095°07'0 0.0
2018-Feb-16 14:25N 29°45' W 095°07'0 0.4
2018-Feb-16 14:00N 29°44' W 095°07'1 0.2
2018-Feb-16 07:19N 29°44' W 095°08'0 0.1
2018-Feb-16 06:55N 29°44' W 095°08'1 2.8
2018-Feb-16 06:24N 29°45' W 095°10'2 0.8
2018-Feb-16 04:08N 29°45' W 095°12'0 0.0
2018-Feb-16 03:53N 29°45' W 095°12'0 0.0
2018-Feb-16 03:26N 29°45' W 095°12'0 0.0
2018-Feb-16 02:56N 29°45' W 095°12'0 0.0
2018-Feb-15 10:18N 29°45' W 095°11'2 4.6
2018-Feb-15 09:49N 29°44' W 095°09'2 5.0
2018-Feb-15 09:30N 29°44' W 095°07'2 2.8
2018-Feb-15 08:49N 29°46' W 095°06'0 0.7
2018-Feb-15 08:28N 29°46' W 095°06'1 1.0
2018-Feb-15 07:51N 29°47' W 095°06'0 0.0
2018-Feb-15 07:27N 29°47' W 095°06'0 0.0
2018-Feb-15 07:00N 29°47' W 095°06'0 0.0
2018-Feb-15 06:24N 29°47' W 095°06'0 0.0
2018-Feb-15 06:00N 29°47' W 095°06'0 0.0
2018-Feb-15 05:24N 29°47' W 095°06'0 0.0
2018-Feb-15 04:30N 29°47' W 095°06'0 0.0
2018-Feb-14 17:09N 29°47' W 095°06'0 0.0
2018-Feb-14 15:03N 29°47' W 095°06'0 0.0
2018-Feb-14 14:42N 29°47' W 095°06'0 0.0
2018-Feb-14 13:57N 29°47' W 095°06'  

Dump ship's entire track history